Time;durP1;ratioP1;P1;durP2;ratioP2;P2;SDS_P1;SDS_P2;PMS_P1;PMS_P2;Temp;Humidity;BMP_temperature;BMP_pressure;BME280_temperature;BME280_humidity;BME280_pressure;Samples;Min_cycle;Max_cycle;Signal;HPM_P1;HPM_P2
2023/04/04 00:00:45;;;;;;;20.77;11.27;;;;;;;;;;4800518;29;20090;-82
2023/04/04 00:03:31;;;;;;;10.05;5.50;;;;;;;;;;4801482;29;20055;-82
2023/04/04 00:06:18;;;;;;;4.15;3.13;;;;;;;;;;4800960;29;20054;-81
2023/04/04 00:09:03;;;;;;;4.18;3.47;;;;;;;;;;4800186;29;20428;-82
2023/04/04 00:11:49;;;;;;;9.98;5.88;;;;;;;;;;4800080;29;20050;-82
2023/04/04 00:14:34;;;;;;;14.05;7.03;;;;;;;;;;4801137;29;20059;-81
2023/04/04 00:17:19;;;;;;;14.43;7.65;;;;;;;;;;4794654;29;20405;-80
2023/04/04 00:20:05;;;;;;;5.93;3.90;;;;;;;;;;4803431;29;20055;-80
2023/04/04 00:22:50;;;;;;;7.70;5.43;;;;;;;;;;4799443;29;20489;-82
2023/04/04 00:25:38;;;;;;;4.55;2.90;;;;;;;;;;4797434;29;20046;-80
2023/04/04 00:28:23;;;;;;;5.38;3.10;;;;;;;;;;4794316;29;20055;-80
2023/04/04 00:31:08;;;;;;;3.72;2.60;;;;;;;;;;4802996;29;20043;-83
2023/04/04 00:33:53;;;;;;;10.57;4.28;;;;;;;;;;4799749;29;20059;-81
2023/04/04 00:36:38;;;;;;;7.10;4.78;;;;;;;;;;4800991;29;20481;-83
2023/04/04 00:39:25;;;;;;;3.75;3.05;;;;;;;;;;4802149;29;20051;-82
2023/04/04 00:42:10;;;;;;;6.75;3.80;;;;;;;;;;4799755;29;20051;-82
2023/04/04 00:44:55;;;;;;;7.43;4.28;;;;;;;;;;4787981;29;20054;-82
2023/04/04 00:47:45;;;;;;;6.30;3.67;;;;;;;;;;4787972;29;20051;-84
2023/04/04 00:50:34;;;;;;;9.07;5.22;;;;;;;;;;4795248;29;20050;-81
2023/04/04 00:53:25;;;;;;;7.22;3.38;;;;;;;;;;4798502;29;20046;-81
2023/04/04 00:56:10;;;;;;;7.15;3.72;;;;;;;;;;4800673;29;20042;-83
2023/04/04 00:58:56;;;;;;;6.38;2.67;;;;;;;;;;4794787;29;20051;-87
2023/04/04 01:01:42;;;;;;;4.00;3.38;;;;;;;;;;4788626;29;20046;-83
2023/04/04 01:04:29;;;;;;;7.35;4.18;;;;;;;;;;4800089;29;20050;-83
2023/04/04 01:07:18;;;;;;;4.78;3.80;;;;;;;;;;4788954;29;20050;-82
2023/04/04 01:10:03;;;;;;;5.05;4.00;;;;;;;;;;4793870;29;20059;-85
2023/04/04 01:12:51;;;;;;;5.85;3.38;;;;;;;;;;4789563;29;20042;-85
2023/04/04 01:15:37;;;;;;;4.75;4.10;;;;;;;;;;4799467;29;20055;-84
2023/04/04 01:18:24;;;;;;;3.72;3.40;;;;;;;;;;4802447;29;20063;-81
2023/04/04 01:21:12;;;;;;;4.38;3.72;;;;;;;;;;4787770;29;20051;-82
2023/04/04 01:24:00;;;;;;;4.93;2.88;;;;;;;;;;4801938;29;20054;-81
2023/04/04 01:26:54;;;;;;;3.88;3.25;;;;;;;;;;4795562;29;20058;-82
2023/04/04 01:29:39;;;;;;;3.65;3.10;;;;;;;;;;4800829;29;20043;-84
2023/04/04 01:32:54;;;;;;;3.90;2.97;;;;;;;;;;4802081;29;20058;-81
2023/04/04 01:35:50;;;;;;;5.25;3.72;;;;;;;;;;4752801;29;20063;-85
2023/04/04 01:39:06;;;;;;;3.85;3.30;;;;;;;;;;4794566;29;20047;-83
2023/04/04 01:41:56;;;;;;;3.28;2.95;;;;;;;;;;4804509;29;20059;-82
2023/04/04 01:44:45;;;;;;;9.25;5.95;;;;;;;;;;4796832;29;20484;-85
2023/04/04 01:47:38;;;;;;;4.03;2.78;;;;;;;;;;4804741;29;20054;-84
2023/04/04 01:53:48;;;;;;;31.30;21.35;;;;;;;;;;4801505;29;20501;-85
2023/04/04 01:56:37;;;;;;;6.70;4.32;;;;;;;;;;4793008;29;20488;-84
2023/04/04 01:59:23;;;;;;;32.97;19.20;;;;;;;;;;4799187;29;20501;-86
2023/04/04 02:02:09;;;;;;;17.63;7.95;;;;;;;;;;4801334;29;20055;-85
2023/04/04 02:04:54;;;;;;;173.98;90.53;;;;;;;;;;4790747;29;20055;-84
2023/04/04 02:07:40;;;;;;;38.78;24.63;;;;;;;;;;4800348;29;20055;-84
2023/04/04 02:10:36;;;;;;;17.85;12.05;;;;;;;;;;4792068;29;20051;-82
2023/04/04 02:13:22;;;;;;;10.45;5.22;;;;;;;;;;4801171;29;20055;-84
2023/04/04 02:16:09;;;;;;;6.60;5.25;;;;;;;;;;4791703;29;20063;-82
2023/04/04 02:18:55;;;;;;;3.97;3.42;;;;;;;;;;4800270;29;20054;-81
2023/04/04 02:21:41;;;;;;;5.75;3.50;;;;;;;;;;4801567;29;20055;-83
2023/04/04 02:24:26;;;;;;;4.65;3.20;;;;;;;;;;4790969;29;20047;-84
2023/04/04 02:27:12;;;;;;;3.65;3.10;;;;;;;;;;4787432;29;20051;-84
2023/04/04 02:29:58;;;;;;;2.42;2.22;;;;;;;;;;4798597;29;20039;-85
2023/04/04 02:32:43;;;;;;;6.53;5.32;;;;;;;;;;4785462;29;20641;-80
2023/04/04 02:35:33;;;;;;;4.97;3.35;;;;;;;;;;4799718;29;20047;-83
2023/04/04 02:38:19;;;;;;;101.70;50.92;;;;;;;;;;4801235;29;20420;-81
2023/04/04 02:41:05;;;;;;;68.10;31.13;;;;;;;;;;4798762;29;20493;-84
2023/04/04 02:43:50;;;;;;;31.67;17.92;;;;;;;;;;4799410;29;20742;-85
2023/04/04 02:46:37;;;;;;;13.63;8.10;;;;;;;;;;4803517;29;20051;-83
2023/04/04 02:49:26;;;;;;;4.70;3.88;;;;;;;;;;4801803;29;20485;-83
2023/04/04 02:52:11;;;;;;;2.67;2.00;;;;;;;;;;4802388;29;20718;-84
2023/04/04 02:55:01;;;;;;;3.90;2.97;;;;;;;;;;4797484;29;20054;-85
2023/04/04 02:57:53;;;;;;;2.95;2.60;;;;;;;;;;4795016;29;20063;-83
2023/04/04 03:00:38;;;;;;;4.50;3.75;;;;;;;;;;4803470;29;20055;-85
2023/04/04 03:03:26;;;;;;;4.20;3.42;;;;;;;;;;4800399;29;20050;-85
2023/04/04 03:06:13;;;;;;;7.15;4.03;;;;;;;;;;4803866;29;20051;-85
2023/04/04 03:08:59;;;;;;;3.80;3.38;;;;;;;;;;4794225;29;20051;-85
2023/04/04 03:11:46;;;;;;;2.45;2.25;;;;;;;;;;4789351;29;20047;-86
2023/04/04 03:14:31;;;;;;;3.33;2.50;;;;;;;;;;4795925;29;20062;-88
2023/04/04 03:17:17;;;;;;;2.92;2.40;;;;;;;;;;4802730;29;20054;-84
2023/04/04 03:20:25;;;;;;;4.40;3.30;;;;;;;;;;4802296;29;20046;-88
2023/04/04 03:23:34;;;;;;;6.40;3.72;;;;;;;;;;4804827;29;20051;-87
2023/04/04 03:26:27;;;;;;;5.07;4.35;;;;;;;;;;4788292;29;20051;-86
2023/04/04 03:30:13;;;;;;;3.90;3.30;;;;;;;;;;4790278;29;20051;-87
2023/04/04 03:33:03;;;;;;;8.30;4.57;;;;;;;;;;4796138;29;20055;-87
2023/04/04 03:35:55;;;;;;;6.82;5.07;;;;;;;;;;4797583;29;20047;-87
2023/04/04 03:38:44;;;;;;;6.32;4.28;;;;;;;;;;4791565;29;20050;-85
2023/04/04 03:41:29;;;;;;;10.43;5.28;;;;;;;;;;4796961;29;20046;-86
2023/04/04 03:44:15;;;;;;;10.88;4.75;;;;;;;;;;4789534;29;20050;-85
2023/04/04 03:47:00;;;;;;;8.50;4.35;;;;;;;;;;4788933;29;20054;-84
2023/04/04 03:49:50;;;;;;;5.07;4.00;;;;;;;;;;4789303;29;20406;-84
2023/04/04 03:52:38;;;;;;;6.25;4.75;;;;;;;;;;4790273;29;20500;-83
2023/04/04 03:55:25;;;;;;;3.90;3.50;;;;;;;;;;4788805;29;20051;-84
2023/04/04 03:58:13;;;;;;;7.43;4.13;;;;;;;;;;4789584;29;20054;-83
2023/04/04 04:00:58;;;;;;;6.78;5.05;;;;;;;;;;4784854;29;20051;-82
2023/04/04 04:03:47;;;;;;;4.38;2.90;;;;;;;;;;4797140;29;20051;-84
2023/04/04 04:06:33;;;;;;;9.63;4.63;;;;;;;;;;4797029;29;20059;-85
2023/04/04 04:09:18;;;;;;;6.03;4.95;;;;;;;;;;4796516;29;20051;-81
2023/04/04 04:12:04;;;;;;;7.80;5.35;;;;;;;;;;4804538;29;20043;-87
2023/04/04 04:14:49;;;;;;;7.78;5.13;;;;;;;;;;4784318;29;20496;-87
2023/04/04 04:17:39;;;;;;;5.85;5.00;;;;;;;;;;4796790;29;20833;-81
2023/04/04 04:20:26;;;;;;;7.97;5.18;;;;;;;;;;4796968;29;20050;-81
2023/04/04 04:23:11;;;;;;;5.40;4.50;;;;;;;;;;4796499;29;20054;-81
2023/04/04 04:25:56;;;;;;;7.53;4.63;;;;;;;;;;4791756;29;20054;-83
2023/04/04 04:28:44;;;;;;;7.13;5.25;;;;;;;;;;4793530;29;20050;-81
2023/04/04 04:31:34;;;;;;;6.68;5.50;;;;;;;;;;4805133;29;20050;-82
2023/04/04 04:34:20;;;;;;;7.15;4.80;;;;;;;;;;4805813;29;20058;-82
2023/04/04 04:37:07;;;;;;;7.70;5.28;;;;;;;;;;4805381;29;20042;-81
2023/04/04 04:40:04;;;;;;;4.80;4.07;;;;;;;;;;4805899;29;20511;-80
2023/04/04 04:42:57;;;;;;;5.28;3.65;;;;;;;;;;4805605;29;20038;-82
2023/04/04 04:45:42;;;;;;;6.90;5.40;;;;;;;;;;4798710;29;20413;-82
2023/04/04 04:48:30;;;;;;;5.70;4.47;;;;;;;;;;4806077;29;20050;-80
2023/04/04 04:51:18;;;;;;;8.68;5.30;;;;;;;;;;4798618;29;20381;-81
2023/04/04 04:54:10;;;;;;;5.22;4.15;;;;;;;;;;4799413;29;20051;-82
2023/04/04 04:56:56;;;;;;;7.43;5.30;;;;;;;;;;4792810;29;20042;-83
2023/04/04 04:59:43;;;;;;;8.18;5.68;;;;;;;;;;4805198;29;20062;-82
2023/04/04 05:02:31;;;;;;;8.05;6.18;;;;;;;;;;4805478;29;20519;-80
2023/04/04 05:05:16;;;;;;;5.50;4.32;;;;;;;;;;4804729;29;20058;-80
2023/04/04 05:08:03;;;;;;;8.07;5.35;;;;;;;;;;4798176;29;20046;-79
2023/04/04 05:10:49;;;;;;;8.55;6.10;;;;;;;;;;4792418;29;20046;-81
2023/04/04 05:13:36;;;;;;;8.98;5.65;;;;;;;;;;4797973;29;20046;-80
2023/04/04 05:16:22;;;;;;;8.35;5.97;;;;;;;;;;4804788;29;20047;-80
2023/04/04 05:19:09;;;;;;;6.82;5.40;;;;;;;;;;4804435;29;20059;-79
2023/04/04 05:22:01;;;;;;;10.18;7.65;;;;;;;;;;4804645;29;20054;-79
2023/04/04 05:25:02;;;;;;;9.55;5.25;;;;;;;;;;4803458;29;20039;-81
2023/04/04 05:27:48;;;;;;;6.13;3.88;;;;;;;;;;4788278;29;20062;-80
2023/04/04 05:30:37;;;;;;;11.57;7.47;;;;;;;;;;4801657;29;20043;-80
2023/04/04 05:33:30;;;;;;;12.13;6.30;;;;;;;;;;4793637;29;20042;-81
2023/04/04 05:36:31;;;;;;;11.57;6.05;;;;;;;;;;4801012;29;20046;-80
2023/04/04 05:39:21;;;;;;;10.93;6.65;;;;;;;;;;4788198;29;20050;-80
2023/04/04 05:42:18;;;;;;;6.65;4.53;;;;;;;;;;4801291;29;20046;-83
2023/04/04 05:45:09;;;;;;;4.55;4.13;;;;;;;;;;4800985;29;20043;-81
2023/04/04 05:47:54;;;;;;;5.55;4.47;;;;;;;;;;4802042;29;20505;-80
2023/04/04 05:50:44;;;;;;;7.60;5.65;;;;;;;;;;4801167;29;20039;-80
2023/04/04 05:53:29;;;;;;;6.45;5.07;;;;;;;;;;4801117;29;20051;-79
2023/04/04 05:56:15;;;;;;;8.38;5.68;;;;;;;;;;4800799;29;20054;-80
2023/04/04 05:59:01;;;;;;;6.75;4.72;;;;;;;;;;4799709;29;20051;-81
2023/04/04 06:01:49;;;;;;;8.70;6.03;;;;;;;;;;4800352;29;20042;-81
2023/04/04 06:04:36;;;;;;;6.55;3.88;;;;;;;;;;4792383;29;20055;-81
2023/04/04 06:07:24;;;;;;;5.72;3.90;;;;;;;;;;4798538;29;20055;-80
2023/04/04 06:10:09;;;;;;;11.40;6.10;;;;;;;;;;4798032;29;20043;-79
2023/04/04 06:12:55;;;;;;;4.43;3.47;;;;;;;;;;4799472;29;20047;-78
2023/04/04 06:15:41;;;;;;;9.35;5.88;;;;;;;;;;4798264;29;20575;-80
2023/04/04 06:18:26;;;;;;;5.13;3.88;;;;;;;;;;4789594;29;20519;-80
2023/04/04 06:21:12;;;;;;;9.15;6.18;;;;;;;;;;4803708;29;20055;-80
2023/04/04 06:23:59;;;;;;;10.25;6.93;;;;;;;;;;4794508;29;20059;-83
2023/04/04 06:26:45;;;;;;;10.05;6.22;;;;;;;;;;4790321;29;20047;-80
2023/04/04 06:29:31;;;;;;;7.20;5.13;;;;;;;;;;4803097;29;20058;-81
2023/04/04 06:32:20;;;;;;;5.78;3.42;;;;;;;;;;4804081;29;20042;-82
2023/04/04 06:35:06;;;;;;;5.10;3.80;;;;;;;;;;4801258;29;20433;-80
2023/04/04 06:38:01;;;;;;;4.53;3.45;;;;;;;;;;4795915;29;20050;-83
2023/04/04 06:40:47;;;;;;;13.70;6.82;;;;;;;;;;4803286;29;20059;-80
2023/04/04 06:43:33;;;;;;;8.13;5.25;;;;;;;;;;4802750;29;20051;-79
2023/04/04 06:46:19;;;;;;;7.72;5.50;;;;;;;;;;4801910;29;20054;-81
2023/04/04 06:49:05;;;;;;;7.20;4.60;;;;;;;;;;4801099;29;20055;-84
2023/04/04 06:51:52;;;;;;;8.32;4.53;;;;;;;;;;4802872;29;20050;-82
2023/04/04 06:54:38;;;;;;;9.85;6.80;;;;;;;;;;4801493;29;20055;-79
2023/04/04 06:57:23;;;;;;;6.75;4.55;;;;;;;;;;4802684;29;20059;-79
2023/04/04 07:00:10;;;;;;;8.88;4.05;;;;;;;;;;4802045;29;20493;-81
2023/04/04 07:02:59;;;;;;;9.10;6.68;;;;;;;;;;4801212;29;20046;-78
2023/04/04 07:05:45;;;;;;;12.27;7.60;;;;;;;;;;4802518;29;20043;-81
2023/04/04 07:08:32;;;;;;;12.32;7.25;;;;;;;;;;4802262;29;20050;-79
2023/04/04 07:11:18;;;;;;;14.77;9.82;;;;;;;;;;4803007;29;20042;-81
2023/04/04 07:14:03;;;;;;;18.25;11.65;;;;;;;;;;4801875;29;20047;-80
2023/04/04 07:16:49;;;;;;;12.15;7.90;;;;;;;;;;4797885;29;20047;-79
2023/04/04 07:19:34;;;;;;;8.27;5.75;;;;;;;;;;4803289;29;20047;-82
2023/04/04 07:22:20;;;;;;;6.05;4.35;;;;;;;;;;4802620;29;20043;-83
2023/04/04 07:25:06;;;;;;;6.07;4.65;;;;;;;;;;4803882;29;20481;-82
2023/04/04 07:27:53;;;;;;;7.10;4.18;;;;;;;;;;4795628;29;20047;-82
2023/04/04 07:30:38;;;;;;;7.95;5.78;;;;;;;;;;4801150;29;20046;-82
2023/04/04 07:33:23;;;;;;;8.82;5.90;;;;;;;;;;4803473;29;21604;-85
2023/04/04 07:36:09;;;;;;;11.68;8.05;;;;;;;;;;4802555;29;20496;-81
2023/04/04 07:38:54;;;;;;;10.95;7.80;;;;;;;;;;4803708;29;20055;-82
2023/04/04 07:41:40;;;;;;;11.18;7.63;;;;;;;;;;4800180;29;20047;-81
2023/04/04 07:44:26;;;;;;;9.38;6.57;;;;;;;;;;4803458;29;20043;-81
2023/04/04 07:47:11;;;;;;;9.63;5.57;;;;;;;;;;4800993;29;20050;-80
2023/04/04 07:49:57;;;;;;;6.28;5.15;;;;;;;;;;4787128;29;20047;-81
2023/04/04 07:52:53;;;;;;;11.50;8.07;;;;;;;;;;4787768;29;20055;-84
2023/04/04 07:55:43;;;;;;;12.25;7.85;;;;;;;;;;4801699;29;20936;-84
2023/04/04 07:58:27;;;;;;;17.27;8.63;;;;;;;;;;4795168;29;20413;-80
2023/04/04 08:01:12;;;;;;;11.93;8.90;;;;;;;;;;4805436;29;20054;-82
2023/04/04 08:03:57;;;;;;;14.00;9.15;;;;;;;;;;4800171;29;20059;-82
2023/04/04 08:06:43;;;;;;;15.10;10.27;;;;;;;;;;4803465;29;20420;-81
2023/04/04 08:09:33;;;;;;;15.68;8.73;;;;;;;;;;4802450;29;20050;-82
2023/04/04 08:12:18;;;;;;;10.88;6.90;;;;;;;;;;4801728;29;20050;-81
2023/04/04 08:15:04;;;;;;;9.15;5.72;;;;;;;;;;4801645;29;20059;-81
2023/04/04 08:17:50;;;;;;;12.32;8.38;;;;;;;;;;4800978;29;20043;-81
2023/04/04 08:20:35;;;;;;;9.85;5.60;;;;;;;;;;4801527;29;20047;-79
2023/04/04 08:23:21;;;;;;;10.43;7.13;;;;;;;;;;4801466;29;20050;-78
2023/04/04 08:26:06;;;;;;;9.93;6.53;;;;;;;;;;4801527;29;20409;-80
2023/04/04 08:28:52;;;;;;;7.28;5.03;;;;;;;;;;4802916;29;20038;-80
2023/04/04 08:31:39;;;;;;;12.30;7.10;;;;;;;;;;4801409;29;20051;-80
2023/04/04 08:34:24;;;;;;;11.65;7.05;;;;;;;;;;4801466;29;20055;-79
2023/04/04 08:37:10;;;;;;;10.32;5.93;;;;;;;;;;4800973;29;20425;-78
2023/04/04 08:39:55;;;;;;;10.98;6.28;;;;;;;;;;4801070;29;20054;-80
2023/04/04 08:42:43;;;;;;;7.53;5.43;;;;;;;;;;4800496;29;20075;-78
2023/04/04 08:45:31;;;;;;;13.00;8.35;;;;;;;;;;4800264;29;20043;-80
2023/04/04 08:48:17;;;;;;;13.55;7.88;;;;;;;;;;4800799;29;20236;-80
2023/04/04 08:51:03;;;;;;;9.02;6.43;;;;;;;;;;4793152;29;20058;-80
2023/04/04 08:53:50;;;;;;;4.18;3.47;;;;;;;;;;4795981;29;20485;-80
2023/04/04 08:56:34;;;;;;;7.97;4.78;;;;;;;;;;4794073;29;20413;-78
2023/04/04 08:59:20;;;;;;;7.43;4.40;;;;;;;;;;4800494;29;20055;-79
2023/04/04 09:02:09;;;;;;;4.35;3.45;;;;;;;;;;4801104;29;20050;-81
2023/04/04 09:04:56;;;;;;;7.57;4.35;;;;;;;;;;4802028;29;20051;-80
2023/04/04 09:07:43;;;;;;;10.45;6.80;;;;;;;;;;4800572;29;20409;-80
2023/04/04 09:10:29;;;;;;;5.50;3.60;;;;;;;;;;4800474;29;20054;-80
2023/04/04 09:13:15;;;;;;;12.50;5.72;;;;;;;;;;4800566;29;20046;-79
2023/04/04 09:16:01;;;;;;;2.55;2.00;;;;;;;;;;4800031;29;20050;-80
2023/04/04 09:18:46;;;;;;;7.35;5.30;;;;;;;;;;4800258;29;20047;-78
2023/04/04 09:21:33;;;;;;;4.70;3.10;;;;;;;;;;4800508;29;20432;-78
2023/04/04 09:24:19;;;;;;;10.98;6.90;;;;;;;;;;4800056;29;20489;-79
2023/04/04 09:27:10;;;;;;;7.47;5.85;;;;;;;;;;4808556;29;20059;-80
2023/04/04 09:30:01;;;;;;;3.55;2.95;;;;;;;;;;4809072;29;20046;-80
2023/04/04 09:32:52;;;;;;;5.53;3.95;;;;;;;;;;4810996;29;20497;-78
2023/04/04 09:35:51;;;;;;;6.30;3.80;;;;;;;;;;4808367;29;20050;-77
2023/04/04 09:38:45;;;;;;;10.80;6.63;;;;;;;;;;4808301;29;20055;-79
2023/04/04 09:41:31;;;;;;;8.40;5.23;;;;;;;;;;4810778;29;20050;-79
2023/04/04 09:44:18;;;;;;;2.95;2.50;;;;;;;;;;4801265;29;20051;-80
2023/04/04 09:47:24;;;;;;;5.15;3.53;;;;;;;;;;4796199;29;20046;-81
2023/04/04 09:50:21;;;;;;;6.53;4.35;;;;;;;;;;4811156;29;20062;-81
2023/04/04 09:53:18;;;;;;;7.72;4.13;;;;;;;;;;4801451;29;20050;-79
2023/04/04 09:56:03;;;;;;;4.95;3.75;;;;;;;;;;4807935;29;20404;-79
2023/04/04 09:58:49;;;;;;;10.13;6.85;;;;;;;;;;4807430;29;20054;-80
2023/04/04 10:01:36;;;;;;;6.90;4.25;;;;;;;;;;4808613;29;20413;-82
2023/04/04 10:04:25;;;;;;;3.40;2.67;;;;;;;;;;4795362;29;20059;-82
2023/04/04 10:07:13;;;;;;;6.75;3.53;;;;;;;;;;4795244;29;20054;-80
2023/04/04 10:10:04;;;;;;;7.55;5.47;;;;;;;;;;4807953;29;20412;-80
2023/04/04 10:12:56;;;;;;;10.13;4.03;;;;;;;;;;4804514;29;20046;-80
2023/04/04 10:15:43;;;;;;;12.10;6.35;;;;;;;;;;4808939;29;20050;-79
2023/04/04 10:18:35;;;;;;;4.47;3.72;;;;;;;;;;4809140;29;20485;-80
2023/04/04 10:21:21;;;;;;;12.40;6.03;;;;;;;;;;4809514;29;20046;-79
2023/04/04 10:24:08;;;;;;;5.00;3.60;;;;;;;;;;4801995;29;20063;-78
2023/04/04 10:26:54;;;;;;;12.95;7.25;;;;;;;;;;4778691;29;20047;-80
2023/04/04 10:29:38;;;;;;;10.70;6.28;;;;;;;;;;4773233;30;20044;-78
2023/04/04 10:32:49;;;;;;;9.38;5.70;;;;;;;;;;4780182;30;20413;-79
2023/04/04 10:35:37;;;;;;;9.68;6.18;;;;;;;;;;4784915;30;20055;-79
2023/04/04 10:38:27;;;;;;;6.63;4.60;;;;;;;;;;4782205;30;20059;-78
2023/04/04 10:41:13;;;;;;;6.38;4.57;;;;;;;;;;4782215;30;20076;-79
2023/04/04 10:44:04;;;;;;;4.80;3.75;;;;;;;;;;4784251;30;20051;-80
2023/04/04 10:46:53;;;;;;;5.07;3.65;;;;;;;;;;4783030;30;20055;-78
2023/04/04 10:49:40;;;;;;;9.90;6.10;;;;;;;;;;4782304;30;20039;-80
2023/04/04 10:52:27;;;;;;;15.27;6.35;;;;;;;;;;4781448;30;20505;-79
2023/04/04 10:55:14;;;;;;;6.53;3.97;;;;;;;;;;4782067;30;20055;-79
2023/04/04 10:58:00;;;;;;;10.27;5.35;;;;;;;;;;4783741;29;20043;-78
2023/04/04 11:00:51;;;;;;;8.38;5.40;;;;;;;;;;4779763;30;20067;-79
2023/04/04 11:04:13;;;;;;;13.05;6.05;;;;;;;;;;4783295;30;20490;-78
2023/04/04 11:07:17;;;;;;;6.30;4.57;;;;;;;;;;4784833;29;20055;-81
2023/04/04 11:10:13;;;;;;;16.33;6.00;;;;;;;;;;4787265;30;20059;-79
2023/04/04 11:13:07;;;;;;;16.75;8.35;;;;;;;;;;4784078;30;20047;-81
2023/04/04 11:16:14;;;;;;;10.10;5.90;;;;;;;;;;4787848;29;20043;-80
2023/04/04 11:19:00;;;;;;;9.73;6.22;;;;;;;;;;4786049;30;20043;-80
2023/04/04 11:21:46;;;;;;;8.80;4.25;;;;;;;;;;4785309;30;20051;-80
2023/04/04 11:24:41;;;;;;;7.43;4.97;;;;;;;;;;4783762;29;20047;-80
2023/04/04 11:27:29;;;;;;;6.63;5.00;;;;;;;;;;4786754;30;20489;-79
2023/04/04 11:30:15;;;;;;;6.13;4.70;;;;;;;;;;4783603;30;20445;-81
2023/04/04 11:33:01;;;;;;;7.93;4.75;;;;;;;;;;4785019;30;20039;-80
2023/04/04 11:35:49;;;;;;;8.70;5.68;;;;;;;;;;4777698;29;20410;-80
2023/04/04 11:38:38;;;;;;;6.78;5.15;;;;;;;;;;4787143;30;20063;-81
2023/04/04 11:41:42;;;;;;;4.85;3.58;;;;;;;;;;4777338;29;20455;-81
2023/04/04 11:44:29;;;;;;;8.75;5.82;;;;;;;;;;4784964;30;20055;-80
2023/04/04 11:47:18;;;;;;;4.00;3.08;;;;;;;;;;4773537;30;20051;-79
2023/04/04 11:50:13;;;;;;;6.70;4.63;;;;;;;;;;4784884;30;20067;-81
2023/04/04 11:52:58;;;;;;;9.63;6.13;;;;;;;;;;4784940;30;20401;-78
2023/04/04 11:55:46;;;;;;;5.68;4.13;;;;;;;;;;4783724;30;20051;-79
2023/04/04 11:58:34;;;;;;;6.72;4.68;;;;;;;;;;4784123;30;20498;-80
2023/04/04 12:01:19;;;;;;;8.80;6.03;;;;;;;;;;4784367;30;20047;-79
2023/04/04 12:04:05;;;;;;;9.35;5.00;;;;;;;;;;4785168;30;20043;-79
2023/04/04 12:06:53;;;;;;;4.80;3.08;;;;;;;;;;4784115;30;20043;-79
2023/04/04 12:09:41;;;;;;;6.80;4.70;;;;;;;;;;4783411;30;20043;-79
2023/04/04 12:12:27;;;;;;;7.18;4.40;;;;;;;;;;4784829;30;20051;-78
2023/04/04 12:15:13;;;;;;;5.57;4.20;;;;;;;;;;4770867;30;20043;-79
2023/04/04 12:17:59;;;;;;;9.45;4.75;;;;;;;;;;4784445;29;20043;-81
2023/04/04 12:20:47;;;;;;;9.48;4.90;;;;;;;;;;4784288;30;20426;-78
2023/04/04 12:23:33;;;;;;;13.20;4.72;;;;;;;;;;4783862;30;20039;-79
2023/04/04 12:26:19;;;;;;;6.35;4.25;;;;;;;;;;4796490;29;20489;-79
2023/04/04 12:29:06;;;;;;;7.00;4.40;;;;;;;;;;4793467;29;20401;-80
2023/04/04 12:31:53;;;;;;;10.35;6.53;;;;;;;;;;4799360;29;20067;-80
2023/04/04 12:34:42;;;;;;;8.10;5.32;;;;;;;;;;4800679;29;20039;-81
2023/04/04 12:37:28;;;;;;;8.02;6.22;;;;;;;;;;4798883;29;20055;-79
2023/04/04 12:40:14;;;;;;;7.72;5.15;;;;;;;;;;4801888;29;20046;-79
2023/04/04 12:43:00;;;;;;;6.35;4.22;;;;;;;;;;4800601;29;20042;-79
2023/04/04 12:45:49;;;;;;;6.35;4.60;;;;;;;;;;4800269;29;20054;-79
2023/04/04 12:48:36;;;;;;;9.02;5.57;;;;;;;;;;4804811;29;20412;-78
2023/04/04 12:51:29;;;;;;;7.10;4.65;;;;;;;;;;4792676;29;20058;-79
2023/04/04 12:54:26;;;;;;;9.38;4.95;;;;;;;;;;4799321;29;20054;-81
2023/04/04 12:57:17;;;;;;;6.78;4.85;;;;;;;;;;4801309;29;20042;-79
2023/04/04 13:00:05;;;;;;;10.60;5.35;;;;;;;;;;4798996;29;20544;-78
2023/04/04 13:02:51;;;;;;;8.70;5.93;;;;;;;;;;4791848;29;20055;-80
2023/04/04 13:05:37;;;;;;;5.00;3.65;;;;;;;;;;4798202;29;20050;-79
2023/04/04 13:08:23;;;;;;;8.02;4.60;;;;;;;;;;4798674;29;20469;-79
2023/04/04 13:11:10;;;;;;;6.22;4.15;;;;;;;;;;4801234;29;20420;-80
2023/04/04 13:14:02;;;;;;;5.03;4.40;;;;;;;;;;4790570;29;20058;-79
2023/04/04 13:17:02;;;;;;;8.88;5.00;;;;;;;;;;4798609;29;20059;-77
2023/04/04 13:19:47;;;;;;;8.60;5.95;;;;;;;;;;4798424;29;20055;-79
2023/04/04 13:22:37;;;;;;;5.35;3.83;;;;;;;;;;4798312;29;20055;-77
2023/04/04 13:25:22;;;;;;;5.82;3.50;;;;;;;;;;4796765;29;20063;-80
2023/04/04 13:28:07;;;;;;;8.40;4.82;;;;;;;;;;4800382;29;20054;-80
2023/04/04 13:30:53;;;;;;;12.30;6.85;;;;;;;;;;4797443;29;20062;-81
2023/04/04 13:33:39;;;;;;;7.38;5.18;;;;;;;;;;4797779;29;20059;-80
2023/04/04 13:36:24;;;;;;;6.78;4.38;;;;;;;;;;4804533;29;21166;-80
2023/04/04 13:39:10;;;;;;;5.35;3.83;;;;;;;;;;4804335;29;20404;-80
2023/04/04 13:41:56;;;;;;;7.10;5.13;;;;;;;;;;4805393;29;20059;-80
2023/04/04 13:44:41;;;;;;;6.80;4.13;;;;;;;;;;4805069;29;20039;-80
2023/04/04 13:47:27;;;;;;;7.15;3.83;;;;;;;;;;4802056;29;20058;-80
2023/04/04 13:50:12;;;;;;;6.65;4.07;;;;;;;;;;4800064;29;20050;-79
2023/04/04 13:52:58;;;;;;;6.35;4.75;;;;;;;;;;4799985;29;20054;-81
2023/04/04 13:55:47;;;;;;;6.03;3.92;;;;;;;;;;4800242;29;20047;-80
2023/04/04 13:58:32;;;;;;;7.40;4.60;;;;;;;;;;4800616;29;20047;-83
2023/04/04 14:01:18;;;;;;;10.52;6.90;;;;;;;;;;4798951;29;20429;-78
2023/04/04 14:04:03;;;;;;;10.68;4.95;;;;;;;;;;4799824;29;20046;-78
2023/04/04 14:06:48;;;;;;;13.80;6.50;;;;;;;;;;4800255;29;20050;-80
2023/04/04 14:09:34;;;;;;;11.43;5.13;;;;;;;;;;4800492;29;20055;-80
2023/04/04 14:12:19;;;;;;;3.38;2.67;;;;;;;;;;4800179;29;20047;-79
2023/04/04 14:15:08;;;;;;;7.55;4.88;;;;;;;;;;4800201;29;20043;-78
2023/04/04 14:17:54;;;;;;;6.75;3.88;;;;;;;;;;4800112;29;20047;-81
2023/04/04 14:20:39;;;;;;;4.43;3.30;;;;;;;;;;4799936;29;20397;-81
2023/04/04 14:23:25;;;;;;;8.32;4.80;;;;;;;;;;4799714;29;20050;-80
2023/04/04 14:26:10;;;;;;;7.28;4.32;;;;;;;;;;4800377;29;20059;-79
2023/04/04 14:28:56;;;;;;;17.65;9.40;;;;;;;;;;4799908;29;20047;-80
2023/04/04 14:31:42;;;;;;;16.55;9.45;;;;;;;;;;4800129;29;20417;-79
2023/04/04 14:34:27;;;;;;;6.03;4.18;;;;;;;;;;4800425;29;20039;-78
2023/04/04 14:37:12;;;;;;;7.93;4.57;;;;;;;;;;4799385;29;20043;-79
2023/04/04 14:39:58;;;;;;;7.57;3.72;;;;;;;;;;4796312;29;20404;-79
2023/04/04 14:42:44;;;;;;;4.75;3.47;;;;;;;;;;4800881;29;20055;-79
2023/04/04 14:45:31;;;;;;;8.18;4.32;;;;;;;;;;4803585;29;20076;-80
2023/04/04 14:48:16;;;;;;;8.13;4.63;;;;;;;;;;4795752;29;20641;-77
2023/04/04 14:51:01;;;;;;;4.70;3.90;;;;;;;;;;4802134;29;20051;-79
2023/04/04 14:53:47;;;;;;;14.25;8.70;;;;;;;;;;4801974;29;20046;-78
2023/04/04 14:56:33;;;;;;;11.55;4.78;;;;;;;;;;4803398;29;20145;-78
2023/04/04 14:59:18;;;;;;;7.78;5.22;;;;;;;;;;4802823;29;20374;-79
2023/04/04 15:02:05;;;;;;;12.40;7.95;;;;;;;;;;4802596;29;20047;-79
2023/04/04 15:04:49;;;;;;;7.70;4.57;;;;;;;;;;4794202;29;20058;-79
2023/04/04 15:07:35;;;;;;;8.90;5.60;;;;;;;;;;4800541;29;20047;-77
2023/04/04 15:10:21;;;;;;;10.73;5.57;;;;;;;;;;4803231;29;20065;-79
2023/04/04 15:13:06;;;;;;;3.20;2.53;;;;;;;;;;4795184;29;20059;-79
2023/04/04 15:15:52;;;;;;;5.13;3.38;;;;;;;;;;4801802;29;20074;-78
2023/04/04 15:18:37;;;;;;;11.60;6.00;;;;;;;;;;4803272;29;20051;-78
2023/04/04 15:21:23;;;;;;;9.20;5.07;;;;;;;;;;4802742;29;20115;-78
2023/04/04 15:24:08;;;;;;;19.13;10.38;;;;;;;;;;4802434;29;20054;-79
2023/04/04 15:26:53;;;;;;;20.70;10.55;;;;;;;;;;4796050;29;20051;-79
2023/04/04 15:29:39;;;;;;;8.85;5.88;;;;;;;;;;4802554;29;20055;-79
2023/04/04 15:32:24;;;;;;;17.83;10.50;;;;;;;;;;4799838;29;20062;-78
2023/04/04 15:35:16;;;;;;;18.58;9.88;;;;;;;;;;4801648;29;20047;-78
2023/04/04 15:38:01;;;;;;;17.30;10.60;;;;;;;;;;4801630;29;20055;-79
2023/04/04 15:40:47;;;;;;;14.45;8.40;;;;;;;;;;4800880;29;20058;-78
2023/04/04 15:43:33;;;;;;;9.07;5.38;;;;;;;;;;4799337;29;20047;-80
2023/04/04 15:46:18;;;;;;;17.17;9.07;;;;;;;;;;4802284;29;20051;-80
2023/04/04 15:49:04;;;;;;;23.92;12.02;;;;;;;;;;4802951;29;20501;-80
2023/04/04 15:51:49;;;;;;;20.88;10.77;;;;;;;;;;4803262;29;20055;-80
2023/04/04 15:54:34;;;;;;;29.92;12.20;;;;;;;;;;4802058;29;20409;-80
2023/04/04 15:57:19;;;;;;;27.52;14.32;;;;;;;;;;4803262;29;20051;-80
2023/04/04 16:00:05;;;;;;;11.68;7.35;;;;;;;;;;4803078;29;20393;-81
2023/04/04 16:02:56;;;;;;;29.77;14.88;;;;;;;;;;4809326;29;20067;-80
2023/04/04 16:05:41;;;;;;;30.77;15.65;;;;;;;;;;4803059;29;20067;-80
2023/04/04 16:08:27;;;;;;;23.70;13.30;;;;;;;;;;4802799;29;20047;-80
2023/04/04 16:11:12;;;;;;;16.08;9.77;;;;;;;;;;4801802;29;20058;-80
2023/04/04 16:13:59;;;;;;;10.82;6.85;;;;;;;;;;4795805;29;20043;-80
2023/04/04 16:16:45;;;;;;;17.13;10.70;;;;;;;;;;4803277;29;20051;-80
2023/04/04 16:19:30;;;;;;;18.52;10.95;;;;;;;;;;4802800;29;20047;-79
2023/04/04 16:22:16;;;;;;;28.13;14.93;;;;;;;;;;4801098;29;20055;-79
2023/04/04 16:25:01;;;;;;;40.00;19.42;;;;;;;;;;4804085;29;20051;-80
2023/04/04 16:27:47;;;;;;;65.53;23.95;;;;;;;;;;4811219;29;20059;-79
2023/04/04 16:30:33;;;;;;;18.88;10.02;;;;;;;;;;4808087;29;20058;-78
2023/04/04 16:33:20;;;;;;;17.17;11.25;;;;;;;;;;4809081;29;20433;-79
2023/04/04 16:36:05;;;;;;;17.08;11.38;;;;;;;;;;4806461;29;20058;-78
2023/04/04 16:38:51;;;;;;;7.95;5.35;;;;;;;;;;4794737;29;20050;-79
2023/04/04 16:41:39;;;;;;;15.88;10.63;;;;;;;;;;4807638;29;20050;-79
2023/04/04 16:44:25;;;;;;;17.15;10.60;;;;;;;;;;4809706;29;20508;-80